SUR4070 SPJC-SPCL
Flight info
| Callsign | SUR4070 |
|---|---|
| Flight time | 0h 59m |
| Altitude | 22999 |
| Route | LIMA5G OPROS UT315 MIKAR MIKA1B |
| Aircraft | E175/L-S/1200 |
Departure
| Time | 2026-05-04 12:03 |
|---|---|
| Airport | Jorge Chávez International Airport (SPJC) |
Arrival
| Time | 2026-05-04 13:03 |
|---|---|
| Airport | Cap FAP David Abenzur Rengifo International Airport (SPCL) |
| Time | Latitude | Longitude | Altitude | Speed | Heading |
|---|---|---|---|---|---|
| 2026-05-04 11:50 | -12.03336 | -77.10548 | 124 ft | 0 kts | 334° |
| 2026-05-04 11:59 | -12.03331 | -77.10551 | 124 ft | 5 kts | 332° |
| 2026-05-04 11:59 | -12.03309 | -77.10579 | 124 ft | 4 kts | 257° |
| 2026-05-04 12:00 | -12.03326 | -77.10610 | 124 ft | 5 kts | 233° |
| 2026-05-04 12:00 | -12.03365 | -77.10632 | 124 ft | 8 kts | 177° |
| 2026-05-04 12:00 | -12.03421 | -77.10606 | 124 ft | 9 kts | 150° |
| 2026-05-04 12:00 | -12.03473 | -77.10584 | 124 ft | 6 kts | 157° |
| 2026-05-04 12:01 | -12.03516 | -77.10564 | 124 ft | 7 kts | 163° |
| 2026-05-04 12:01 | -12.03563 | -77.10574 | 124 ft | 7 kts | 220° |
| 2026-05-04 12:02 | -12.03571 | -77.10746 | 123 ft | 0 kts | 326° |
| 2026-05-04 12:03 | -12.03373 | -77.10852 | 124 ft | 75 kts | 335° |
| 2026-05-04 12:03 | -12.02682 | -77.11198 | 124 ft | 146 kts | 331° |
| 2026-05-04 12:03 | -12.01628 | -77.11738 | 415 ft | 186 kts | 332° |
| 2026-05-04 12:03 | -12.00443 | -77.12454 | 881 ft | 204 kts | 309° |
| 2026-05-04 12:04 | -11.99918 | -77.13863 | 1517 ft | 231 kts | 276° |
| 2026-05-04 12:04 | -11.99766 | -77.15565 | 2102 ft | 249 kts | 276° |
| 2026-05-04 12:04 | -11.99589 | -77.17358 | 2630 ft | 254 kts | 277° |
| 2026-05-04 12:04 | -11.99402 | -77.19139 | 3138 ft | 255 kts | 277° |
| 2026-05-04 12:05 | -11.99206 | -77.20956 | 3651 ft | 257 kts | 277° |
| 2026-05-04 12:05 | -11.99008 | -77.22759 | 4159 ft | 258 kts | 277° |
| 2026-05-04 12:05 | -11.98810 | -77.24555 | 4665 ft | 260 kts | 277° |
| 2026-05-04 12:05 | -11.98618 | -77.26280 | 5148 ft | 261 kts | 278° |
| 2026-05-04 12:06 | -11.98414 | -77.28123 | 5662 ft | 264 kts | 278° |
| 2026-05-04 12:06 | -11.98206 | -77.29984 | 6163 ft | 266 kts | 278° |
| 2026-05-04 12:06 | -11.97997 | -77.31858 | 6652 ft | 269 kts | 278° |
| 2026-05-04 12:06 | -11.97785 | -77.33764 | 7165 ft | 271 kts | 278° |
| 2026-05-04 12:07 | -11.97570 | -77.35689 | 7677 ft | 273 kts | 278° |
| 2026-05-04 12:07 | -11.97358 | -77.37593 | 8202 ft | 276 kts | 277° |
| 2026-05-04 12:07 | -11.97139 | -77.39547 | 8712 ft | 278 kts | 277° |
| 2026-05-04 12:07 | -11.96936 | -77.41512 | 9200 ft | 281 kts | 271° |
| 2026-05-04 12:08 | -11.97435 | -77.43424 | 9746 ft | 287 kts | 237° |
| 2026-05-04 12:08 | -11.98932 | -77.44768 | 10330 ft | 293 kts | 203° |
| 2026-05-04 12:08 | -12.00942 | -77.45074 | 10930 ft | 297 kts | 169° |
| 2026-05-04 12:08 | -12.02837 | -77.44219 | 11533 ft | 306 kts | 137° |
| 2026-05-04 12:09 | -12.04008 | -77.42566 | 12094 ft | 313 kts | 110° |
| 2026-05-04 12:09 | -12.04574 | -77.40391 | 12667 ft | 324 kts | 100° |
| 2026-05-04 12:09 | -12.04925 | -77.38140 | 13176 ft | 335 kts | 97° |
| 2026-05-04 12:09 | -12.05205 | -77.35741 | 13679 ft | 347 kts | 95° |
| 2026-05-04 12:10 | -12.05454 | -77.33274 | 14176 ft | 356 kts | 95° |
| 2026-05-04 12:10 | -12.05695 | -77.30724 | 14672 ft | 361 kts | 95° |
| 2026-05-04 12:10 | -12.05825 | -77.28192 | 15130 ft | 364 kts | 83° |
| 2026-05-04 12:10 | -12.05437 | -77.25660 | 15645 ft | 365 kts | 87° |
| 2026-05-04 12:11 | -12.05343 | -77.23069 | 16147 ft | 366 kts | 85° |
| 2026-05-04 12:11 | -12.05111 | -77.20477 | 16625 ft | 368 kts | 83° |
| 2026-05-04 12:11 | -12.04830 | -77.17900 | 17105 ft | 371 kts | 82° |
| 2026-05-04 12:11 | -12.04524 | -77.15273 | 17589 ft | 373 kts | 82° |
| 2026-05-04 12:12 | -12.04160 | -77.12629 | 18073 ft | 376 kts | 75° |
| 2026-05-04 12:12 | -12.03022 | -77.10277 | 18587 ft | 379 kts | 51° |
| 2026-05-04 12:12 | -12.01055 | -77.08501 | 19128 ft | 382 kts | 37° |
| 2026-05-04 12:12 | -11.98889 | -77.06905 | 19621 ft | 385 kts | 36° |
| 2026-05-04 12:13 | -11.96708 | -77.05315 | 20100 ft | 389 kts | 36° |
| 2026-05-04 12:14 | -11.80958 | -76.93909 | 23068 ft | 409 kts | 35° |
| 2026-05-04 12:15 | -11.78624 | -76.92220 | 23116 ft | 410 kts | 35° |
| 2026-05-04 12:15 | -11.76293 | -76.90534 | 23243 ft | 410 kts | 35° |
| 2026-05-04 12:15 | -11.73951 | -76.88841 | 23275 ft | 410 kts | 35° |
| 2026-05-04 12:15 | -11.71649 | -76.87177 | 23326 ft | 409 kts | 35° |
| 2026-05-04 12:16 | -11.69300 | -76.85480 | 23398 ft | 409 kts | 35° |
| 2026-05-04 12:16 | -11.66976 | -76.83800 | 23453 ft | 409 kts | 35° |
| 2026-05-04 12:16 | -11.64649 | -76.82119 | 23499 ft | 408 kts | 35° |
| 2026-05-04 12:16 | -11.62350 | -76.80460 | 23542 ft | 409 kts | 35° |
| 2026-05-04 12:17 | -11.60037 | -76.78788 | 23599 ft | 408 kts | 35° |
| 2026-05-04 12:17 | -11.57701 | -76.77102 | 23638 ft | 407 kts | 35° |
| 2026-05-04 12:17 | -11.55384 | -76.75430 | 23660 ft | 406 kts | 35° |
| 2026-05-04 12:17 | -11.53084 | -76.73770 | 23684 ft | 407 kts | 35° |
| 2026-05-04 12:18 | -11.50766 | -76.72097 | 23730 ft | 408 kts | 35° |
| 2026-05-04 12:18 | -11.48467 | -76.70439 | 23747 ft | 406 kts | 35° |
| 2026-05-04 12:18 | -11.46134 | -76.68756 | 23727 ft | 406 kts | 35° |
| 2026-05-04 12:18 | -11.43842 | -76.67104 | 23764 ft | 406 kts | 35° |
| 2026-05-04 12:19 | -11.41531 | -76.65437 | 23788 ft | 408 kts | 35° |
| 2026-05-04 12:19 | -11.39195 | -76.63754 | 23795 ft | 407 kts | 35° |
| 2026-05-04 12:19 | -11.36893 | -76.62095 | 23794 ft | 407 kts | 35° |
| 2026-05-04 12:19 | -11.34581 | -76.60429 | 23820 ft | 407 kts | 35° |
| 2026-05-04 12:20 | -11.32272 | -76.58766 | 23841 ft | 408 kts | 35° |
| 2026-05-04 12:20 | -11.29962 | -76.57102 | 23848 ft | 408 kts | 35° |
| 2026-05-04 12:20 | -11.27639 | -76.55430 | 23878 ft | 407 kts | 35° |
| 2026-05-04 12:20 | -11.25308 | -76.53752 | 23902 ft | 406 kts | 35° |
| 2026-05-04 12:21 | -11.22986 | -76.52080 | 23928 ft | 407 kts | 35° |
| 2026-05-04 12:21 | -11.20699 | -76.50435 | 23951 ft | 406 kts | 35° |
| 2026-05-04 12:21 | -11.18379 | -76.48766 | 23960 ft | 405 kts | 35° |
| 2026-05-04 12:21 | -11.16070 | -76.47105 | 23944 ft | 405 kts | 35° |
| 2026-05-04 12:22 | -11.13776 | -76.45454 | 23925 ft | 406 kts | 35° |
| 2026-05-04 12:22 | -11.11443 | -76.43778 | 23917 ft | 406 kts | 35° |
| 2026-05-04 12:22 | -11.09141 | -76.42123 | 23895 ft | 405 kts | 35° |
| 2026-05-04 12:22 | -11.06827 | -76.40459 | 23886 ft | 406 kts | 35° |
| 2026-05-04 12:23 | -11.04535 | -76.38812 | 23870 ft | 408 kts | 35° |
| 2026-05-04 12:23 | -11.02201 | -76.37135 | 23867 ft | 406 kts | 35° |
| 2026-05-04 12:23 | -10.99891 | -76.35476 | 23874 ft | 405 kts | 35° |
| 2026-05-04 12:23 | -10.97586 | -76.33820 | 23872 ft | 405 kts | 35° |
| 2026-05-04 12:24 | -10.95258 | -76.32149 | 23876 ft | 406 kts | 35° |
| 2026-05-04 12:24 | -10.92942 | -76.30486 | 23869 ft | 405 kts | 35° |
| 2026-05-04 12:24 | -10.90661 | -76.28849 | 23871 ft | 406 kts | 35° |
| 2026-05-04 12:24 | -10.88344 | -76.27187 | 23891 ft | 407 kts | 35° |
| 2026-05-04 12:25 | -10.86036 | -76.25532 | 23894 ft | 405 kts | 35° |
| 2026-05-04 12:25 | -10.83727 | -76.23875 | 23896 ft | 406 kts | 35° |
| 2026-05-04 12:25 | -10.81404 | -76.22210 | 23888 ft | 405 kts | 35° |
| 2026-05-04 12:25 | -10.79091 | -76.20551 | 23888 ft | 407 kts | 35° |
| 2026-05-04 12:26 | -10.76758 | -76.18878 | 23880 ft | 407 kts | 35° |
| 2026-05-04 12:26 | -10.74464 | -76.17235 | 23883 ft | 407 kts | 35° |
| 2026-05-04 12:26 | -10.72138 | -76.15568 | 23882 ft | 405 kts | 35° |
| 2026-05-04 12:26 | -10.69827 | -76.13911 | 23874 ft | 406 kts | 35° |
| 2026-05-04 12:27 | -10.67499 | -76.12244 | 23877 ft | 406 kts | 35° |
| 2026-05-04 12:27 | -10.65189 | -76.10589 | 23871 ft | 407 kts | 35° |
| 2026-05-04 12:27 | -10.62891 | -76.08944 | 23865 ft | 405 kts | 35° |
| 2026-05-04 12:27 | -10.60566 | -76.07279 | 23856 ft | 407 kts | 35° |
| 2026-05-04 12:28 | -10.58279 | -76.05642 | 23867 ft | 405 kts | 34° |
| 2026-05-04 12:28 | -10.55965 | -76.03986 | 23887 ft | 405 kts | 35° |
| 2026-05-04 12:28 | -10.53644 | -76.02325 | 23927 ft | 405 kts | 35° |
| 2026-05-04 12:28 | -10.51334 | -76.00673 | 23953 ft | 405 kts | 35° |
| 2026-05-04 12:29 | -10.49052 | -75.99040 | 23996 ft | 405 kts | 35° |
| 2026-05-04 12:29 | -10.46714 | -75.97368 | 23941 ft | 407 kts | 35° |
| 2026-05-04 12:29 | -10.44431 | -75.95735 | 23872 ft | 405 kts | 35° |
| 2026-05-04 12:29 | -10.42112 | -75.94077 | 23849 ft | 406 kts | 35° |
| 2026-05-04 12:30 | -10.39800 | -75.92425 | 23822 ft | 407 kts | 35° |
| 2026-05-04 12:30 | -10.37459 | -75.90752 | 23825 ft | 406 kts | 35° |
| 2026-05-04 12:30 | -10.35136 | -75.89092 | 23774 ft | 406 kts | 35° |
| 2026-05-04 12:30 | -10.32830 | -75.87444 | 23737 ft | 406 kts | 35° |
| 2026-05-04 12:31 | -10.30529 | -75.85802 | 23686 ft | 407 kts | 35° |
| 2026-05-04 12:31 | -10.28209 | -75.84144 | 23671 ft | 407 kts | 35° |
| 2026-05-04 12:31 | -10.25891 | -75.82490 | 23659 ft | 407 kts | 35° |
| 2026-05-04 12:31 | -10.23577 | -75.80837 | 23640 ft | 406 kts | 35° |
| 2026-05-04 12:32 | -10.21258 | -75.79182 | 23647 ft | 407 kts | 35° |
| 2026-05-04 12:32 | -10.16624 | -75.75877 | 23612 ft | 405 kts | 35° |
| 2026-05-04 12:32 | -10.14308 | -75.74225 | 23577 ft | 408 kts | 35° |
| 2026-05-04 12:33 | -10.11975 | -75.72561 | 23565 ft | 407 kts | 35° |
| 2026-05-04 12:33 | -10.09684 | -75.70927 | 23576 ft | 407 kts | 35° |
| 2026-05-04 12:33 | -10.07346 | -75.69260 | 23555 ft | 406 kts | 35° |
| 2026-05-04 12:33 | -10.05035 | -75.67613 | 23522 ft | 408 kts | 35° |
| 2026-05-04 12:34 | -10.02697 | -75.65947 | 23469 ft | 407 kts | 35° |
| 2026-05-04 12:34 | -10.00381 | -75.64296 | 23439 ft | 407 kts | 35° |
| 2026-05-04 12:34 | -9.98083 | -75.62659 | 23419 ft | 407 kts | 35° |
| 2026-05-04 12:34 | -9.95750 | -75.60998 | 23425 ft | 407 kts | 35° |
| 2026-05-04 12:35 | -9.93428 | -75.59344 | 23406 ft | 407 kts | 35° |
| 2026-05-04 12:35 | -9.91106 | -75.57690 | 23365 ft | 408 kts | 35° |
| 2026-05-04 12:35 | -9.88794 | -75.56044 | 23308 ft | 408 kts | 35° |
| 2026-05-04 12:35 | -9.86466 | -75.54387 | 23293 ft | 407 kts | 35° |
| 2026-05-04 12:36 | -9.84129 | -75.52724 | 23268 ft | 407 kts | 35° |
| 2026-05-04 12:36 | -9.81807 | -75.51072 | 23201 ft | 408 kts | 35° |
| 2026-05-04 12:36 | -9.79485 | -75.49419 | 23153 ft | 409 kts | 35° |
| 2026-05-04 12:36 | -9.77164 | -75.47768 | 23144 ft | 408 kts | 35° |
| 2026-05-04 12:37 | -9.74822 | -75.46102 | 23144 ft | 408 kts | 35° |
| 2026-05-04 12:37 | -9.72502 | -75.44453 | 23121 ft | 407 kts | 35° |
| 2026-05-04 12:37 | -9.70196 | -75.42814 | 23127 ft | 408 kts | 35° |
| 2026-05-04 12:37 | -9.67872 | -75.41161 | 23123 ft | 408 kts | 35° |
| 2026-05-04 12:38 | -9.65535 | -75.39501 | 23132 ft | 408 kts | 35° |
| 2026-05-04 12:38 | -9.63212 | -75.37850 | 23111 ft | 408 kts | 35° |
| 2026-05-04 12:38 | -9.60886 | -75.36198 | 23104 ft | 408 kts | 35° |
| 2026-05-04 12:38 | -9.58559 | -75.34544 | 23107 ft | 410 kts | 35° |
| 2026-05-04 12:39 | -9.56223 | -75.32886 | 23101 ft | 409 kts | 35° |
| 2026-05-04 12:39 | -9.53899 | -75.31235 | 23090 ft | 409 kts | 35° |
| 2026-05-04 12:39 | -9.51566 | -75.29579 | 23084 ft | 410 kts | 35° |
| 2026-05-04 12:39 | -9.49200 | -75.27899 | 23074 ft | 410 kts | 35° |
| 2026-05-04 12:40 | -9.46929 | -75.26288 | 22965 ft | 381 kts | 35° |
| 2026-05-04 12:40 | -9.44900 | -75.24848 | 22937 ft | 341 kts | 35° |
| 2026-05-04 12:40 | -9.43038 | -75.23529 | 22622 ft | 315 kts | 35° |
| 2026-05-04 12:40 | -9.41293 | -75.22292 | 22341 ft | 292 kts | 35° |
| 2026-05-04 12:41 | -9.39673 | -75.21144 | 21979 ft | 278 kts | 35° |
| 2026-05-04 12:41 | -9.38135 | -75.20055 | 21620 ft | 265 kts | 35° |
| 2026-05-04 12:41 | -9.36653 | -75.19004 | 21248 ft | 254 kts | 35° |
| 2026-05-04 12:41 | -9.35239 | -75.18002 | 20935 ft | 248 kts | 36° |
| 2026-05-04 12:42 | -9.33853 | -75.17020 | 20618 ft | 248 kts | 36° |
| 2026-05-04 12:42 | -9.32451 | -75.16026 | 20302 ft | 249 kts | 36° |
| 2026-05-04 12:42 | -9.31028 | -75.15018 | 19990 ft | 250 kts | 36° |
| 2026-05-04 12:42 | -9.29613 | -75.14014 | 19680 ft | 250 kts | 37° |
| 2026-05-04 12:43 | -9.28230 | -75.13034 | 19351 ft | 248 kts | 37° |
| 2026-05-04 12:43 | -9.26818 | -75.12033 | 19053 ft | 247 kts | 37° |
| 2026-05-04 12:43 | -9.25444 | -75.11060 | 18744 ft | 245 kts | 37° |
| 2026-05-04 12:43 | -9.24059 | -75.10079 | 18405 ft | 244 kts | 37° |
| 2026-05-04 12:44 | -9.22689 | -75.09108 | 18092 ft | 242 kts | 37° |
| 2026-05-04 12:44 | -9.21310 | -75.08132 | 17770 ft | 241 kts | 38° |
| 2026-05-04 12:44 | -9.19940 | -75.07162 | 17456 ft | 240 kts | 38° |
| 2026-05-04 12:44 | -9.18584 | -75.06200 | 17133 ft | 240 kts | 38° |
| 2026-05-04 12:45 | -9.17222 | -75.05236 | 16816 ft | 239 kts | 38° |
| 2026-05-04 12:45 | -9.15886 | -75.04290 | 16494 ft | 238 kts | 38° |
| 2026-05-04 12:45 | -9.14541 | -75.03338 | 16169 ft | 236 kts | 38° |
| 2026-05-04 12:45 | -9.13209 | -75.02394 | 15838 ft | 235 kts | 38° |
| 2026-05-04 12:46 | -9.11876 | -75.01451 | 15489 ft | 232 kts | 38° |
| 2026-05-04 12:46 | -9.10568 | -75.00526 | 15176 ft | 230 kts | 38° |
| 2026-05-04 12:46 | -9.09270 | -74.99607 | 14862 ft | 229 kts | 38° |
| 2026-05-04 12:46 | -9.07976 | -74.98692 | 14638 ft | 224 kts | 38° |
| 2026-05-04 12:47 | -9.06724 | -74.97807 | 14403 ft | 224 kts | 38° |
| 2026-05-04 12:47 | -9.05463 | -74.96914 | 14090 ft | 225 kts | 38° |
| 2026-05-04 12:47 | -9.04196 | -74.96018 | 13768 ft | 224 kts | 38° |
| 2026-05-04 12:47 | -9.02937 | -74.95126 | 13439 ft | 222 kts | 37° |
| 2026-05-04 12:48 | -9.01686 | -74.94241 | 13109 ft | 220 kts | 38° |
| 2026-05-04 12:48 | -9.00433 | -74.93356 | 12771 ft | 219 kts | 37° |
| 2026-05-04 12:48 | -8.99197 | -74.92481 | 12436 ft | 217 kts | 37° |
| 2026-05-04 12:48 | -8.97958 | -74.91605 | 12097 ft | 216 kts | 37° |
| 2026-05-04 12:49 | -8.96747 | -74.90749 | 11763 ft | 215 kts | 37° |
| 2026-05-04 12:49 | -8.95523 | -74.89883 | 11425 ft | 214 kts | 37° |
| 2026-05-04 12:49 | -8.94307 | -74.89024 | 11089 ft | 212 kts | 37° |
| 2026-05-04 12:49 | -8.93107 | -74.88175 | 10753 ft | 211 kts | 37° |
| 2026-05-04 12:50 | -8.91906 | -74.87326 | 10413 ft | 210 kts | 36° |
| 2026-05-04 12:50 | -8.90713 | -74.86483 | 10074 ft | 209 kts | 36° |
| 2026-05-04 12:50 | -8.89535 | -74.85651 | 9737 ft | 207 kts | 36° |
| 2026-05-04 12:50 | -8.88389 | -74.84841 | 9406 ft | 206 kts | 36° |
| 2026-05-04 12:51 | -8.87267 | -74.84049 | 9082 ft | 205 kts | 36° |
| 2026-05-04 12:51 | -8.86131 | -74.83246 | 8754 ft | 204 kts | 36° |
| 2026-05-04 12:51 | -8.84993 | -74.82442 | 8421 ft | 203 kts | 36° |
| 2026-05-04 12:51 | -8.83877 | -74.81653 | 8091 ft | 202 kts | 36° |
| 2026-05-04 12:52 | -8.82737 | -74.80848 | 7750 ft | 201 kts | 36° |
| 2026-05-04 12:52 | -8.81607 | -74.80050 | 7414 ft | 200 kts | 36° |
| 2026-05-04 12:52 | -8.80478 | -74.79252 | 7075 ft | 199 kts | 36° |
| 2026-05-04 12:52 | -8.79356 | -74.78459 | 6738 ft | 198 kts | 35° |
| 2026-05-04 12:53 | -8.78235 | -74.77667 | 6396 ft | 197 kts | 35° |
| 2026-05-04 12:53 | -8.77135 | -74.76891 | 6061 ft | 196 kts | 35° |
| 2026-05-04 12:53 | -8.76024 | -74.76106 | 5721 ft | 194 kts | 35° |
| 2026-05-04 12:53 | -8.74930 | -74.75333 | 5385 ft | 193 kts | 35° |
| 2026-05-04 12:54 | -8.73824 | -74.74553 | 5041 ft | 192 kts | 34° |
| 2026-05-04 12:54 | -8.72739 | -74.73787 | 4701 ft | 191 kts | 34° |
| 2026-05-04 12:54 | -8.71664 | -74.73028 | 4363 ft | 190 kts | 34° |
| 2026-05-04 12:54 | -8.70592 | -74.72271 | 4028 ft | 189 kts | 34° |
| 2026-05-04 12:55 | -8.69518 | -74.71513 | 3677 ft | 188 kts | 34° |
| 2026-05-04 12:55 | -8.68453 | -74.70762 | 3349 ft | 186 kts | 34° |
| 2026-05-04 12:55 | -8.67422 | -74.70034 | 3245 ft | 170 kts | 33° |
| 2026-05-04 12:55 | -8.66532 | -74.69406 | 3273 ft | 153 kts | 33° |
| 2026-05-04 12:56 | -8.65666 | -74.68793 | 3059 ft | 152 kts | 34° |
| 2026-05-04 12:56 | -8.64797 | -74.68178 | 2864 ft | 150 kts | 34° |
| 2026-05-04 12:56 | -8.63948 | -74.67577 | 2675 ft | 149 kts | 33° |
| 2026-05-04 12:56 | -8.63108 | -74.66983 | 2490 ft | 148 kts | 33° |
| 2026-05-04 12:57 | -8.62206 | -74.66477 | 2298 ft | 148 kts | 20° |
| 2026-05-04 12:57 | -8.61244 | -74.66111 | 2119 ft | 148 kts | 20° |
| 2026-05-04 12:57 | -8.60276 | -74.65744 | 1924 ft | 148 kts | 20° |
| 2026-05-04 12:57 | -8.59303 | -74.65377 | 1735 ft | 148 kts | 20° |
| 2026-05-04 12:58 | -8.58334 | -74.65013 | 1566 ft | 147 kts | 20° |
| 2026-05-04 12:58 | -8.57374 | -74.64652 | 1549 ft | 146 kts | 20° |
| 2026-05-04 12:58 | -8.56413 | -74.64291 | 1547 ft | 148 kts | 21° |
| 2026-05-04 12:58 | -8.55438 | -74.63921 | 1545 ft | 148 kts | 21° |
| 2026-05-04 12:59 | -8.54471 | -74.63559 | 1543 ft | 149 kts | 20° |
| 2026-05-04 12:59 | -8.53488 | -74.63195 | 1542 ft | 149 kts | 21° |
| 2026-05-04 12:59 | -8.52504 | -74.62832 | 1542 ft | 149 kts | 20° |
| 2026-05-04 12:59 | -8.51532 | -74.62474 | 1543 ft | 149 kts | 20° |
| 2026-05-04 13:00 | -8.50553 | -74.62113 | 1543 ft | 149 kts | 20° |
| 2026-05-04 13:00 | -8.49575 | -74.61753 | 1541 ft | 147 kts | 20° |
| 2026-05-04 13:00 | -8.48611 | -74.61405 | 1503 ft | 147 kts | 20° |
| 2026-05-04 13:00 | -8.47643 | -74.61050 | 1474 ft | 148 kts | 20° |
| 2026-05-04 13:01 | -8.46674 | -74.60686 | 1446 ft | 149 kts | 20° |
| 2026-05-04 13:01 | -8.45687 | -74.60327 | 1484 ft | 148 kts | 20° |
| 2026-05-04 13:01 | -8.44727 | -74.59967 | 1455 ft | 149 kts | 20° |
| 2026-05-04 13:01 | -8.43743 | -74.59619 | 1361 ft | 151 kts | 20° |
| 2026-05-04 13:02 | -8.42753 | -74.59258 | 1135 ft | 152 kts | 20° |
| 2026-05-04 13:02 | -8.41787 | -74.58903 | 936 ft | 152 kts | 20° |
| 2026-05-04 13:02 | -8.40792 | -74.58543 | 722 ft | 153 kts | 21° |
| 2026-05-04 13:02 | -8.39805 | -74.58177 | 615 ft | 153 kts | 21° |
| 2026-05-04 13:03 | -8.38817 | -74.57812 | 524 ft | 154 kts | 20° |
| 2026-05-04 13:03 | -8.37997 | -74.57508 | 509 ft | 78 kts | 22° |
| 2026-05-04 13:03 | -8.37748 | -74.57426 | 509 ft | 5 kts | 4° |
| 2026-05-04 13:03 | -8.37750 | -74.57412 | 509 ft | 5 kts | 159° |
| 2026-05-04 13:04 | -8.37797 | -74.57423 | 509 ft | 7 kts | 198° |
| 2026-05-04 13:04 | -8.37854 | -74.57443 | 509 ft | 10 kts | 199° |
| 2026-05-04 13:04 | -8.37934 | -74.57471 | 509 ft | 13 kts | 199° |
| 2026-05-04 13:04 | -8.38030 | -74.57508 | 509 ft | 15 kts | 200° |
| 2026-05-04 13:05 | -8.38141 | -74.57549 | 506 ft | 17 kts | 199° |
| 2026-05-04 13:05 | -8.38230 | -74.57587 | 506 ft | 12 kts | 199° |
| 2026-05-04 13:05 | -8.38307 | -74.57584 | 506 ft | 9 kts | 136° |
| 2026-05-04 13:05 | -8.38314 | -74.57575 | 506 ft | 0 kts | 126° |
| 2026-05-04 13:06 | -8.38319 | -74.57568 | 506 ft | 3 kts | 117° |
| 2026-05-04 13:06 | -8.38331 | -74.57539 | 506 ft | 5 kts | 109° |
| 2026-05-04 13:06 | -8.38344 | -74.57501 | 506 ft | 7 kts | 114° |
| 2026-05-04 13:06 | -8.38362 | -74.57458 | 506 ft | 5 kts | 108° |
| 2026-05-04 13:07 | -8.38355 | -74.57437 | 506 ft | 0 kts | 37° |